Micco, Florida
Current Conditions -  °F | °C
As of 7:53 PM on Wednesday 22 Oct 2014 (Local Time) from KVRB Reporting Station
Clear Clear  
Wind Chill: 23°   Ceiling: Unl
Heat Index: 23°   Visibility: 10mi
Dew Point: 18°   Wind: 8mph
Humidity: 76%   Direction: 10°N
Pressure: 29.95"   Gusts: NA
Location:  27.8606°N, 80.5442°W
Report Text: KVRB 222353Z 01007KT 10SM CLR 23/18 A2995 RMK AO2 SLP142 T02280183 10278 20228 51014
Loading
Personal Weather Stations






























Interactive Weather Map
Tropical Storm Tracking
New forecast layout! Learn more

10-Day Weather Forecast

Advertisements
Track Severe Weather on mobile